Time;durP1;ratioP1;P1;durP2;ratioP2;P2;SDS_P1;SDS_P2;PMS_P1;PMS_P2;Temp;Humidity;BMP_temperature;BMP_pressure;BME280_temperature;BME280_humidity;BME280_pressure;Samples;Min_cycle;Max_cycle;Signal;HPM_P1;HPM_P2
2024/01/17 00:02:00;;;;;;;11.18;5.60;;;-3.10;99.90;;;-4.32;100.00;95897.53;4983179;28;20041;-35
2024/01/17 00:04:27;;;;;;;12.65;5.70;;;-3.10;99.90;;;-4.27;100.00;95903.50;4984125;28;20593;-35
2024/01/17 00:06:55;;;;;;;10.52;5.18;;;-3.10;99.90;;;-4.25;100.00;95904.38;4981017;28;20034;-35
2024/01/17 00:09:20;;;;;;;13.45;5.75;;;-3.10;99.90;;;-4.22;100.00;95905.22;4983175;28;20217;-35
2024/01/17 00:11:47;;;;;;;12.82;5.90;;;-3.10;99.90;;;-4.22;100.00;95894.91;4983497;28;20045;-37
2024/01/17 00:14:13;;;;;;;12.40;5.55;;;-3.00;99.90;;;-4.19;100.00;95894.03;4984548;28;20030;-36
2024/01/17 00:16:38;;;;;;;11.50;5.57;;;-3.00;99.90;;;-4.21;100.00;95888.03;4985443;28;20076;-37
2024/01/17 00:19:05;;;;;;;13.07;5.22;;;-3.00;99.90;;;-4.23;100.00;95887.19;4989488;28;20119;-37
2024/01/17 00:21:30;;;;;;;10.82;5.07;;;-3.10;99.90;;;-4.27;100.00;95878.63;4988435;28;20046;-36
2024/01/17 00:23:56;;;;;;;13.75;5.88;;;-3.10;99.90;;;-4.31;100.00;95876.06;4991189;28;20034;-36
2024/01/17 00:26:22;;;;;;;11.15;5.60;;;-3.20;99.90;;;-4.36;100.00;95868.38;4988065;28;20029;-34
2024/01/17 00:28:47;;;;;;;12.68;5.68;;;-3.20;99.90;;;-4.38;100.00;95864.06;4992993;28;20459;-37
2024/01/17 00:31:13;;;;;;;11.90;5.70;;;-3.20;99.90;;;-4.35;100.00;95864.91;4986932;28;20029;-37
2024/01/17 00:33:39;;;;;;;10.45;6.00;;;-3.20;99.90;;;-4.37;100.00;95865.78;4989204;28;20030;-36
2024/01/17 00:36:06;;;;;;;14.45;6.10;;;-3.20;99.90;;;-4.33;100.00;95862.34;4995155;28;20054;-36
2024/01/17 00:38:32;;;;;;;12.68;6.15;;;-3.10;99.90;;;-4.33;100.00;95864.91;4998570;28;20053;-36
2024/01/17 00:40:58;;;;;;;12.93;5.75;;;-3.10;99.90;;;-4.30;100.00;95859.75;4998522;28;20049;-36
2024/01/17 00:43:23;;;;;;;12.07;5.88;;;-3.10;99.90;;;-4.35;100.00;95846.91;4996254;28;20461;-36
2024/01/17 00:45:49;;;;;;;11.98;5.47;;;-3.10;99.90;;;-4.26;100.00;95854.59;4999540;28;20371;-36
2024/01/17 00:48:15;;;;;;;18.27;6.38;;;-3.10;99.90;;;-4.25;100.00;95840.00;5000483;28;20034;-36
2024/01/17 00:50:41;;;;;;;12.88;6.28;;;-3.10;99.90;;;-4.25;100.00;95832.28;4997693;28;20437;-36
2024/01/17 00:53:07;;;;;;;10.10;5.68;;;-3.00;99.90;;;-4.23;100.00;95840.88;4994364;28;20034;-36
2024/01/17 00:55:33;;;;;;;12.13;6.40;;;-3.00;99.90;;;-4.22;100.00;95829.69;4971126;28;20054;-36
2024/01/17 00:57:59;;;;;;;13.52;6.03;;;-3.00;99.90;;;-4.14;100.00;95833.09;4988155;28;20030;-36
2024/01/17 01:00:25;;;;;;;15.50;6.72;;;-3.00;99.90;;;-4.13;100.00;95824.50;4995198;28;20529;-36
2024/01/17 01:02:52;;;;;;;14.35;6.82;;;-3.00;99.90;;;-4.12;100.00;95823.63;4996359;28;20046;-36
2024/01/17 01:05:17;;;;;;;20.10;7.18;;;-2.90;99.90;;;-4.12;100.00;95820.22;4995635;28;20487;-35
2024/01/17 01:07:44;;;;;;;12.82;6.13;;;-2.90;99.90;;;-4.11;100.00;95819.34;4995795;28;20169;-35
2024/01/17 01:10:09;;;;;;;15.18;6.60;;;-2.80;99.90;;;-4.04;100.00;95828.75;4995003;28;20511;-35
2024/01/17 01:12:35;;;;;;;12.40;6.50;;;-2.80;99.90;;;-3.97;100.00;95830.41;4997338;28;20076;-35
2024/01/17 01:15:01;;;;;;;14.40;6.40;;;-2.80;99.90;;;-3.95;100.00;95831.25;4996232;28;20912;-35
2024/01/17 01:17:27;;;;;;;11.95;5.85;;;-2.80;99.90;;;-3.91;100.00;95827.81;4995181;28;20045;-35
2024/01/17 01:19:55;;;;;;;14.80;6.43;;;-2.70;99.90;;;-3.91;100.00;95827.81;4994251;28;20037;-36
2024/01/17 01:22:21;;;;;;;12.27;5.63;;;-2.70;99.90;;;-3.84;100.00;95826.94;4998631;28;20045;-35
2024/01/17 01:24:47;;;;;;;10.60;5.85;;;-2.70;99.90;;;-3.86;100.00;95820.06;4997994;28;20034;-36
2024/01/17 01:27:12;;;;;;;17.58;6.93;;;-2.60;99.90;;;-3.73;100.00;95823.41;4995226;28;20033;-36
2024/01/17 01:29:38;;;;;;;12.82;6.30;;;-2.60;99.90;;;-3.73;100.00;95819.13;4987963;28;20038;-36
2024/01/17 01:32:04;;;;;;;13.15;6.30;;;-2.60;99.90;;;-3.73;100.00;95810.53;4986980;28;20038;-36
2024/01/17 01:34:29;;;;;;;13.10;6.15;;;-2.60;99.90;;;-3.73;100.00;95806.25;4996494;28;20030;-36
2024/01/17 01:36:55;;;;;;;11.85;5.75;;;-2.60;99.90;;;-3.68;100.00;95807.09;4991087;28;20053;-36
2024/01/17 01:39:21;;;;;;;12.68;5.68;;;-2.50;99.90;;;-3.63;100.00;95801.03;4997822;28;20033;-36
2024/01/17 01:41:47;;;;;;;14.48;6.15;;;-2.50;99.90;;;-3.58;100.00;95801.84;4985764;28;20034;-36
2024/01/17 01:44:12;;;;;;;13.25;6.70;;;-2.40;99.90;;;-3.54;100.00;95799.22;4993600;28;20118;-36
2024/01/17 01:46:39;;;;;;;12.75;6.32;;;-2.40;99.90;;;-3.53;100.00;95785.50;4994748;28;20041;-35
2024/01/17 01:49:04;;;;;;;16.20;6.38;;;-2.30;99.90;;;-3.47;100.00;95785.44;4995364;28;20708;-35
2024/01/17 01:51:30;;;;;;;13.43;6.40;;;-2.30;99.90;;;-3.43;100.00;95778.53;4994587;28;20569;-34
2024/01/17 01:54:02;;;;;;;12.43;6.18;;;-2.30;99.90;;;-3.38;100.00;95781.94;4993633;28;20116;-34
2024/01/17 01:56:31;;;;;;;16.30;6.47;;;-2.20;99.90;;;-3.33;100.00;95771.59;4995934;28;20413;-34
2024/01/17 01:58:58;;;;;;;11.85;5.95;;;-2.20;99.90;;;-3.29;100.00;95773.25;4997421;28;20137;-34
2024/01/17 02:01:26;;;;;;;13.20;5.75;;;-2.20;99.90;;;-3.25;100.00;95764.63;4993670;28;20460;-35
2024/01/17 02:03:53;;;;;;;13.63;6.65;;;-2.10;99.90;;;-3.22;100.00;95766.34;4993100;28;20034;-35
2024/01/17 02:06:21;;;;;;;13.13;6.13;;;-2.10;99.90;;;-3.20;100.00;95749.13;4994789;28;20053;-35
2024/01/17 02:08:46;;;;;;;13.32;6.78;;;-2.10;99.90;;;-3.17;100.00;95756.84;4998851;28;20041;-35
2024/01/17 02:11:13;;;;;;;12.90;6.80;;;-2.10;99.90;;;-3.23;100.00;95737.13;4997119;28;20029;-35
2024/01/17 02:13:40;;;;;;;16.55;6.57;;;-2.00;99.90;;;-3.12;100.00;95737.03;4996190;28;20380;-35
2024/01/17 02:16:06;;;;;;;20.20;6.68;;;-2.00;99.90;;;-3.08;100.00;95738.69;4995216;28;20120;-35
2024/01/17 02:18:32;;;;;;;16.55;7.13;;;-2.00;99.90;;;-3.07;100.00;95732.66;4994391;28;20408;-35
2024/01/17 02:20:57;;;;;;;15.55;7.13;;;-1.90;99.90;;;-3.03;100.00;95731.75;4991025;28;23813;-34
2024/01/17 02:23:28;;;;;;;12.93;6.63;;;-1.90;99.90;;;-3.01;100.00;95716.28;4992923;28;20120;-35
2024/01/17 02:25:56;;;;;;;16.60;7.35;;;-1.90;99.90;;;-2.95;100.00;95714.47;4995708;28;20033;-34
2024/01/17 02:28:25;;;;;;;16.80;6.32;;;-1.80;99.90;;;-2.93;100.00;95717.88;4994031;28;20030;-34
2024/01/17 02:30:51;;;;;;;15.48;7.00;;;-1.80;99.90;;;-2.94;100.00;95708.44;4994084;28;20038;-35
2024/01/17 02:33:18;;;;;;;17.42;6.70;;;-1.80;99.90;;;-2.88;100.00;95710.09;4993322;28;20026;-35
2024/01/17 02:35:44;;;;;;;12.52;6.32;;;-1.80;99.90;;;-2.81;100.00;95695.41;4996032;28;20120;-35
2024/01/17 02:38:10;;;;;;;17.63;6.50;;;-1.70;99.90;;;-2.85;100.00;95668.78;4985038;28;20052;-35
2024/01/17 02:40:36;;;;;;;16.00;6.95;;;-1.70;99.90;;;-2.76;100.00;95691.06;4998087;28;20080;-35
2024/01/17 02:43:01;;;;;;;12.30;6.38;;;-1.60;99.90;;;-2.80;100.00;95679.91;4978784;28;20038;-35
2024/01/17 02:45:27;;;;;;;14.52;6.63;;;-1.60;99.90;;;-2.70;100.00;95680.66;4991841;28;20030;-35
2024/01/17 02:47:53;;;;;;;15.52;6.75;;;-1.60;99.90;;;-2.64;100.00;95680.56;4992007;28;20177;-35
2024/01/17 02:50:19;;;;;;;12.73;6.88;;;-1.50;99.90;;;-2.68;100.00;95681.47;4991295;28;20410;-35
2024/01/17 02:52:44;;;;;;;12.80;6.72;;;-1.50;99.90;;;-2.69;100.00;95680.63;4991730;28;20026;-35
2024/01/17 02:55:12;;;;;;;12.60;6.32;;;-1.50;99.90;;;-2.67;100.00;95680.63;4995907;28;20506;-35
2024/01/17 02:57:38;;;;;;;13.15;6.30;;;-1.50;99.90;;;-2.71;100.00;95684.09;4996059;28;20038;-35
2024/01/17 03:00:06;;;;;;;12.93;5.65;;;-1.60;99.90;;;-2.75;100.00;95669.53;4992032;28;20604;-35
2024/01/17 03:02:32;;;;;;;12.93;5.75;;;-1.60;99.90;;;-2.75;100.00;95665.22;4993049;28;20470;-35
2024/01/17 03:04:58;;;;;;;12.75;6.70;;;-1.60;99.90;;;-2.74;100.00;95663.50;4983634;28;20049;-35
2024/01/17 03:07:23;;;;;;;12.43;6.13;;;-1.60;99.90;;;-2.95;100.00;95634.50;4986094;28;20044;-35
2024/01/17 03:09:49;;;;;;;12.88;6.35;;;-1.60;99.90;;;-2.83;100.00;95654.16;4966369;28;20402;-35
2024/01/17 03:12:15;;;;;;;11.45;6.00;;;-1.70;99.90;;;-2.98;100.00;95620.78;4981912;28;20088;-35
2024/01/17 03:14:41;;;;;;;12.90;6.15;;;-1.70;99.90;;;-3.05;100.00;95622.63;4984820;28;20067;-34
2024/01/17 03:17:08;;;;;;;12.27;5.78;;;-1.70;99.90;;;-3.01;100.00;95616.53;4984080;28;20029;-35
2024/01/17 03:19:33;;;;;;;13.93;6.38;;;-1.70;99.90;;;-2.89;100.00;95634.44;4999462;28;20077;-35
2024/01/17 03:22:01;;;;;;;14.77;6.72;;;-1.70;99.90;;;-2.92;100.00;95628.47;4986021;28;20038;-35
2024/01/17 03:24:27;;;;;;;13.43;6.63;;;-1.70;99.90;;;-2.84;100.00;95636.09;4991595;28;20111;-35
2024/01/17 03:26:53;;;;;;;13.73;6.43;;;-1.70;99.90;;;-2.88;100.00;95619.81;4984950;28;20042;-35
2024/01/17 03:29:18;;;;;;;10.57;5.47;;;-1.70;99.90;;;-2.77;100.00;95632.56;4984401;28;20021;-35
2024/01/17 03:31:44;;;;;;;15.07;7.20;;;-1.60;99.90;;;-2.75;100.00;95630.81;4984282;28;20029;-35
2024/01/17 03:34:10;;;;;;;13.00;6.82;;;-1.60;99.90;;;-2.72;100.00;95630.78;4986821;28;20033;-35
2024/01/17 03:36:35;;;;;;;13.00;6.82;;;-1.60;99.90;;;-2.65;100.00;95629.00;4998678;28;20030;-35
2024/01/17 03:39:01;;;;;;;12.80;5.93;;;-1.60;99.90;;;-2.59;100.00;95634.06;4995536;28;20042;-35
2024/01/17 03:41:27;;;;;;;13.65;6.88;;;-1.50;99.90;;;-2.54;100.00;95634.84;4990737;28;20056;-35
2024/01/17 03:43:53;;;;;;;12.20;6.32;;;-1.40;99.90;;;-2.47;100.00;95628.72;4993987;28;20643;-35
2024/01/17 03:46:18;;;;;;;14.35;6.13;;;-1.40;99.90;;;-2.60;100.00;95586.75;4980676;28;20392;-35
2024/01/17 03:48:44;;;;;;;11.82;6.05;;;-1.30;99.90;;;-2.39;100.00;95613.94;4987809;28;20132;-34
2024/01/17 03:51:10;;;;;;;13.93;6.85;;;-1.30;99.90;;;-2.40;100.00;95598.53;4984280;28;20361;-35
2024/01/17 03:53:36;;;;;;;13.63;6.80;;;-1.20;99.90;;;-2.32;100.00;95602.66;4982753;28;20498;-35
2024/01/17 03:56:02;;;;;;;15.02;6.90;;;-1.20;99.90;;;-2.29;100.00;95591.44;4989476;28;20073;-35
2024/01/17 03:58:28;;;;;;;13.77;7.82;;;-1.20;99.90;;;-2.27;100.00;95576.78;4996221;28;20117;-34
2024/01/17 04:00:53;;;;;;;16.65;6.65;;;-1.10;99.90;;;-2.20;100.00;95574.97;4989733;28;20037;-35
2024/01/17 04:03:19;;;;;;;14.73;7.22;;;-1.10;99.90;;;-2.15;100.00;95563.69;4986111;28;20033;-35
2024/01/17 04:05:45;;;;;;;12.18;6.82;;;-1.00;99.90;;;-2.18;100.00;95548.22;4993776;28;20079;-35
2024/01/17 04:08:11;;;;;;;12.55;6.72;;;-1.00;99.90;;;-2.05;100.00;95559.19;5001826;28;20029;-35
2024/01/17 04:10:36;;;;;;;12.50;6.78;;;-1.00;99.90;;;-2.01;100.00;95560.00;4999881;28;20468;-35
2024/01/17 04:13:02;;;;;;;12.32;6.28;;;-0.90;99.90;;;-2.01;100.00;95545.38;4991254;28;20503;-35
2024/01/17 04:15:29;;;;;;;12.05;6.40;;;-0.90;99.90;;;-1.91;100.00;95535.72;4983779;28;20041;-35
2024/01/17 04:17:54;;;;;;;16.08;7.20;;;-0.80;99.90;;;-1.86;100.00;95520.97;4985371;28;20040;-35
2024/01/17 04:20:20;;;;;;;13.18;6.80;;;-0.80;99.90;;;-1.87;100.00;95508.94;4987906;28;20037;-35
2024/01/17 04:22:46;;;;;;;13.35;6.63;;;-0.80;99.90;;;-1.78;100.00;95505.31;4987458;28;20386;-35
2024/01/17 04:25:12;;;;;;;13.27;7.53;;;-0.70;99.90;;;-1.77;100.00;95502.72;4984971;28;20038;-35
2024/01/17 04:27:38;;;;;;;13.98;7.00;;;-0.70;99.90;;;-1.73;100.00;95494.00;4987780;28;20140;-35
2024/01/17 04:30:05;;;;;;;14.82;7.35;;;-0.70;99.90;;;-1.72;100.00;95487.13;4985979;28;20054;-34
2024/01/17 04:32:35;;;;;;;17.63;7.20;;;-0.70;99.90;;;-1.68;100.00;95493.94;4984552;28;20530;-34
2024/01/17 04:35:01;;;;;;;17.27;7.65;;;-0.60;99.90;;;-1.66;100.00;95499.94;4992387;28;20723;-35
2024/01/17 04:37:27;;;;;;;12.85;7.32;;;-0.60;99.90;;;-1.63;100.00;95489.53;4993472;28;20128;-35
2024/01/17 04:39:53;;;;;;;14.48;7.38;;;-0.60;99.90;;;-1.58;100.00;95489.44;4989306;28;20034;-34
2024/01/17 04:42:18;;;;;;;15.55;7.45;;;-0.50;99.90;;;-1.52;100.00;95483.31;4984765;28;20056;-35
2024/01/17 04:44:45;;;;;;;11.50;7.07;;;-0.50;99.90;;;-1.51;100.00;95483.25;4979829;28;20041;-35
2024/01/17 04:47:13;;;;;;;16.52;7.97;;;-0.50;99.90;;;-1.47;100.00;95471.09;4981551;28;20562;-35
2024/01/17 04:49:39;;;;;;;16.65;7.70;;;-0.40;99.90;;;-1.46;100.00;95468.50;4985151;28;20037;-35
2024/01/17 04:52:05;;;;;;;15.13;7.60;;;-0.40;99.90;;;-1.44;100.00;95463.31;4990254;28;20113;-35
2024/01/17 04:54:31;;;;;;;14.77;7.53;;;-0.40;99.90;;;-1.43;100.00;95449.50;4991065;28;20038;-34
2024/01/17 04:56:57;;;;;;;14.30;7.20;;;-0.40;99.90;;;-1.39;100.00;95449.38;4992196;28;20038;-35
2024/01/17 04:59:23;;;;;;;17.00;7.55;;;-0.30;99.90;;;-1.36;100.00;95448.50;4987547;28;20120;-35
2024/01/17 05:01:49;;;;;;;13.02;7.45;;;-0.30;99.90;;;-1.32;100.00;95442.34;4986656;28;20095;-35
2024/01/17 05:04:14;;;;;;;12.65;6.60;;;-0.30;99.90;;;-1.37;100.00;95424.34;4990272;28;20171;-35
2024/01/17 05:06:40;;;;;;;16.02;6.72;;;-0.20;99.90;;;-1.21;100.00;95432.63;5010696;28;20038;-35
2024/01/17 05:09:08;;;;;;;18.63;7.32;;;-0.20;99.90;;;-1.20;100.00;95415.38;4990481;28;20030;-35
2024/01/17 05:11:34;;;;;;;14.40;7.53;;;-0.10;99.90;;;-1.17;100.00;95426.50;4993613;28;20393;-36
2024/01/17 05:14:00;;;;;;;17.98;7.25;;;-0.10;99.90;;;-1.14;100.00;95415.22;4995042;28;20653;-34
2024/01/17 05:16:26;;;;;;;14.38;7.88;;;-0.10;99.90;;;-1.16;100.00;95407.50;4988255;28;20525;-33
2024/01/17 05:18:51;;;;;;;12.27;7.45;;;-0.10;99.90;;;-1.14;100.00;95396.28;4992889;28;20041;-33
2024/01/17 05:21:17;;;;;;;13.80;7.65;;;-0.10;99.90;;;-1.24;100.00;95377.53;4993173;28;20030;-34
2024/01/17 05:23:43;;;;;;;14.40;7.72;;;-0.10;99.90;;;-1.11;100.00;95384.13;5001666;28;20556;-34
2024/01/17 05:26:09;;;;;;;15.40;7.88;;;-0.10;99.90;;;-1.09;100.00;95381.50;4998594;28;20062;-34
2024/01/17 05:28:35;;;;;;;16.30;7.45;;;-0.10;99.90;;;-1.05;100.00;95375.38;4997765;28;21848;-34
2024/01/17 05:31:01;;;;;;;21.00;8.52;;;0.00;99.90;;;-1.01;100.00;95366.63;4996184;28;20441;-34
2024/01/17 05:33:26;;;;;;;13.50;7.55;;;0.00;99.90;;;-0.98;100.00;95370.00;4998552;28;20549;-34
2024/01/17 05:35:52;;;;;;;20.02;7.97;;;0.00;99.90;;;-0.98;100.00;95364.00;5002217;28;20033;-34
2024/01/17 05:38:18;;;;;;;17.58;7.35;;;0.10;99.90;;;-0.92;100.00;95366.41;4990515;28;20502;-35
2024/01/17 05:40:44;;;;;;;15.25;7.95;;;0.10;99.90;;;-0.90;100.00;95350.84;4997948;28;20038;-35
2024/01/17 05:43:10;;;;;;;14.35;7.90;;;0.10;99.90;;;-0.93;100.00;95336.25;4996358;28;20029;-35
2024/01/17 05:45:36;;;;;;;17.63;8.05;;;0.20;99.90;;;-0.93;100.00;95340.56;4991973;28;20030;-34
2024/01/17 05:48:02;;;;;;;15.55;8.27;;;0.10;99.90;;;-0.90;100.00;95332.75;4996025;28;20109;-35
2024/01/17 05:50:28;;;;;;;16.25;8.38;;;0.10;99.90;;;-0.93;100.00;95315.56;4998172;28;20025;-34
2024/01/17 05:52:53;;;;;;;15.20;8.10;;;0.10;99.90;;;-0.89;100.00;95316.34;4998532;28;20083;-34
2024/01/17 05:55:20;;;;;;;18.90;8.63;;;0.10;99.90;;;-0.97;100.00;95298.41;4996493;28;20034;-34
2024/01/17 05:57:46;;;;;;;17.15;8.32;;;0.10;99.90;;;-0.88;100.00;95308.53;4998740;28;20637;-34
2024/01/17 06:00:14;;;;;;;18.63;8.18;;;0.10;99.90;;;-0.86;100.00;95305.88;4997211;28;20042;-35
2024/01/17 06:02:42;;;;;;;15.70;8.25;;;0.20;99.90;;;-0.85;100.00;95308.44;4999090;28;20034;-34
2024/01/17 06:05:08;;;;;;;19.05;9.05;;;0.20;99.90;;;-0.83;100.00;95301.47;5001059;28;20530;-34
2024/01/17 06:07:35;;;;;;;19.35;9.00;;;0.20;99.90;;;-0.83;100.00;95300.63;4998166;28;20391;-34
2024/01/17 06:10:00;;;;;;;17.75;8.68;;;0.20;99.90;;;-0.86;100.00;95295.53;4999303;28;20530;-34
2024/01/17 06:12:26;;;;;;;20.40;8.90;;;0.20;99.90;;;-0.86;100.00;95295.53;4991043;28;20950;-34
2024/01/17 06:14:52;;;;;;;18.38;8.70;;;0.20;99.90;;;-0.94;100.00;95271.63;4992603;28;20030;-34
2024/01/17 06:17:18;;;;;;;13.60;8.57;;;0.20;99.90;;;-0.85;100.00;95273.97;4988167;28;20360;-35
2024/01/17 06:19:44;;;;;;;16.77;8.57;;;0.10;99.90;;;-0.85;100.00;95269.63;4989454;28;20038;-34
2024/01/17 06:22:10;;;;;;;23.42;9.13;;;0.20;99.90;;;-0.85;100.00;95268.78;4991419;28;20380;-35
2024/01/17 06:24:36;;;;;;;20.38;9.40;;;0.20;99.90;;;-0.85;100.00;95264.44;4995958;28;21685;-34
2024/01/17 06:27:02;;;;;;;13.02;8.02;;;0.20;99.90;;;-0.83;100.00;95256.66;4999673;28;20033;-35
2024/01/17 06:29:33;;;;;;;20.67;9.05;;;0.20;99.90;;;-0.89;100.00;95244.72;4996593;28;20037;-34
2024/01/17 06:31:59;;;;;;;16.63;8.00;;;0.20;99.90;;;-0.91;100.00;95230.16;4997453;28;20046;-35
2024/01/17 06:34:25;;;;;;;20.98;8.65;;;0.20;99.90;;;-0.78;100.00;95241.84;4994521;28;20617;-34
2024/01/17 06:36:51;;;;;;;14.98;8.43;;;0.20;99.90;;;-0.75;100.00;95236.59;4995738;28;20053;-34
2024/01/17 06:39:17;;;;;;;15.52;8.73;;;0.30;99.90;;;-0.74;100.00;95232.25;4992548;28;20026;-34
2024/01/17 06:41:43;;;;;;;16.33;8.38;;;0.30;99.90;;;-0.76;100.00;95219.34;4996752;28;20494;-34
2024/01/17 06:44:10;;;;;;;14.65;8.48;;;0.30;99.90;;;-0.69;100.00;95228.66;4999999;28;20513;-34
2024/01/17 06:46:36;;;;;;;16.10;8.45;;;0.30;99.90;;;-0.68;100.00;95221.72;4999640;28;20041;-34
2024/01/17 06:49:02;;;;;;;13.15;7.63;;;0.30;99.90;;;-0.68;100.00;95221.72;4992830;28;20033;-35
2024/01/17 06:51:28;;;;;;;16.42;8.00;;;0.30;99.90;;;-0.66;100.00;95215.63;4995102;28;20072;-34
2024/01/17 06:53:54;;;;;;;16.20;8.32;;;0.30;99.90;;;-0.72;100.00;95194.25;4997786;28;20340;-34
2024/01/17 06:56:20;;;;;;;17.98;8.93;;;0.40;99.90;;;-0.61;100.00;95206.00;4993858;28;21682;-35
2024/01/17 06:58:45;;;;;;;20.00;8.45;;;0.40;99.90;;;-0.59;100.00;95201.63;4989502;28;20034;-34
2024/01/17 07:01:11;;;;;;;13.73;8.05;;;0.40;99.90;;;-0.53;100.00;95195.41;4993637;28;20042;-34
2024/01/17 07:03:37;;;;;;;17.05;8.63;;;0.50;99.90;;;-0.51;100.00;95187.63;4995032;28;21637;-34
2024/01/17 07:06:05;;;;;;;15.35;8.35;;;0.50;99.90;;;-0.46;100.00;95193.50;4992122;28;20064;-35
2024/01/17 07:08:30;;;;;;;14.35;7.47;;;0.60;99.90;;;-0.50;100.00;95173.75;4993595;28;20040;-34
2024/01/17 07:10:56;;;;;;;15.75;8.38;;;0.60;99.90;;;-0.37;100.00;95185.47;4994726;28;20030;-34
2024/01/17 07:13:22;;;;;;;14.98;8.10;;;0.60;99.90;;;-0.32;100.00;95173.22;4990568;28;20034;-34
2024/01/17 07:15:47;;;;;;;14.98;8.00;;;0.70;99.90;;;-0.27;100.00;95176.53;4993795;28;20471;-34
2024/01/17 07:18:13;;;;;;;15.65;7.80;;;0.70;99.90;;;-0.26;100.00;95162.69;4994148;28;20041;-34
2024/01/17 07:20:39;;;;;;;18.38;7.90;;;0.80;99.90;;;-0.19;100.00;95165.94;4992854;28;20779;-34
2024/01/17 07:23:08;;;;;;;20.45;8.43;;;0.80;99.90;;;-0.15;100.00;95169.28;4990730;28;20025;-34
2024/01/17 07:25:33;;;;;;;19.52;8.10;;;0.80;99.90;;;-0.13;100.00;95165.72;4995958;28;20464;-34
2024/01/17 07:28:00;;;;;;;18.17;8.73;;;0.90;99.90;;;-0.12;100.00;95164.84;4994469;28;20033;-34
2024/01/17 07:30:26;;;;;;;15.18;8.75;;;0.90;99.90;;;-0.11;100.00;95151.00;4993421;28;20054;-34
2024/01/17 07:32:51;;;;;;;17.95;8.52;;;0.90;99.90;;;-0.06;100.00;95156.88;4997229;28;20812;-34
2024/01/17 07:35:17;;;;;;;15.00;8.40;;;0.90;99.90;;;-0.02;100.00;95160.22;4996106;28;20482;-34
2024/01/17 07:37:43;;;;;;;15.98;8.15;;;1.00;99.90;;;-0.01;100.00;95155.00;4995181;28;20042;-35
2024/01/17 07:40:10;;;;;;;16.73;8.63;;;1.00;99.90;;;0.01;100.00;95152.34;4992554;28;20124;-35
2024/01/17 07:42:36;;;;;;;14.63;8.48;;;1.00;99.90;;;0.01;100.00;95144.59;4991338;28;20052;-35
2024/01/17 07:45:06;;;;;;;16.27;8.55;;;1.00;99.90;;;0.07;100.00;95134.03;4995032;28;20041;-34
2024/01/17 07:47:32;;;;;;;14.30;8.48;;;1.00;99.90;;;0.03;100.00;95116.03;4986684;28;20036;-36
2024/01/17 07:49:59;;;;;;;19.23;8.50;;;1.10;99.90;;;0.15;100.00;95128.59;4993129;28;20037;-33
2024/01/17 07:52:26;;;;;;;17.15;8.77;;;1.10;99.90;;;0.19;100.00;95127.59;4991155;28;20037;-34
2024/01/17 07:54:51;;;;;;;17.13;9.10;;;1.10;99.90;;;0.19;100.00;95132.78;4997695;28;20029;-34
2024/01/17 07:57:17;;;;;;;13.98;8.85;;;1.10;99.90;;;0.14;100.00;95104.44;4996850;28;20486;-34
2024/01/17 07:59:43;;;;;;;17.33;8.55;;;1.20;99.90;;;0.24;100.00;95114.50;4994612;28;20040;-34
2024/01/17 08:02:10;;;;;;;16.35;9.00;;;1.20;99.90;;;0.28;100.00;95111.72;4989079;28;20399;-34
2024/01/17 08:04:36;;;;;;;15.05;8.82;;;1.30;99.90;;;0.33;100.00;95109.84;4996960;28;20029;-34
2024/01/17 08:07:02;;;;;;;15.70;8.77;;;1.30;99.90;;;0.36;100.00;95111.50;4993646;28;20038;-34
2024/01/17 08:09:28;;;;;;;21.88;9.32;;;1.30;99.90;;;0.39;100.00;95113.97;4993824;28;20075;-34
2024/01/17 08:11:57;;;;;;;16.67;8.52;;;1.30;99.90;;;0.36;100.00;95098.53;4997251;28;20124;-34
2024/01/17 08:14:23;;;;;;;20.05;8.57;;;1.30;99.90;;;0.42;100.00;95100.06;4995154;28;20034;-35
2024/01/17 08:16:50;;;;;;;15.32;8.80;;;1.40;99.90;;;0.43;100.00;95093.97;4994683;28;20398;-34
2024/01/17 08:19:17;;;;;;;18.52;10.70;;;1.40;99.90;;;0.43;100.00;95087.06;4983982;28;20096;-34
2024/01/17 08:21:44;;;;;;;17.45;9.70;;;1.40;99.90;;;0.45;100.00;95087.84;4992852;28;20033;-34
2024/01/17 08:24:10;;;;;;;18.67;9.60;;;1.40;99.90;;;0.47;100.00;95080.84;4993554;28;20081;-34
2024/01/17 08:26:38;;;;;;;18.95;8.57;;;1.40;99.90;;;0.45;100.00;95068.84;4994976;28;20033;-34
2024/01/17 08:29:04;;;;;;;16.27;8.95;;;1.40;99.90;;;0.52;100.00;95068.59;4997638;28;20435;-35
2024/01/17 08:31:30;;;;;;;17.58;9.00;;;1.50;99.90;;;0.53;100.00;95064.25;4988240;28;20029;-34
2024/01/17 08:33:56;;;;;;;18.88;9.00;;;1.50;99.90;;;0.59;100.00;95058.81;4995373;28;20462;-34
2024/01/17 08:36:23;;;;;;;14.13;8.02;;;1.50;99.90;;;0.63;100.00;95055.25;4992491;28;20453;-34
2024/01/17 08:38:48;;;;;;;20.05;9.30;;;1.60;99.90;;;0.66;100.00;95049.91;4988674;28;20449;-34
2024/01/17 08:41:19;;;;;;;17.38;8.80;;;1.60;99.90;;;0.64;100.00;95036.16;4990422;28;20038;-35
2024/01/17 08:43:45;;;;;;;18.77;9.50;;;1.70;99.90;;;0.75;100.00;95047.03;4997064;28;20038;-34
2024/01/17 08:46:14;;;;;;;16.50;9.63;;;1.70;99.90;;;0.78;100.00;95047.81;4996894;28;20116;-35
2024/01/17 08:48:40;;;;;;;15.23;8.50;;;1.70;99.90;;;0.84;100.00;95042.38;4990132;28;20476;-35
2024/01/17 08:51:08;;;;;;;22.80;9.73;;;1.80;99.90;;;0.86;100.00;95036.25;4998599;28;20045;-34
2024/01/17 08:53:34;;;;;;;15.82;8.77;;;1.80;99.90;;;0.91;100.00;95029.13;4994561;28;20175;-35
2024/01/17 08:56:02;;;;;;;17.25;8.50;;;1.90;99.90;;;0.96;100.00;95031.56;4993434;28;20030;-35
2024/01/17 08:58:28;;;;;;;14.88;7.75;;;1.90;99.90;;;1.02;100.00;95023.53;4995728;28;20025;-34
2024/01/17 09:00:53;;;;;;;14.27;8.57;;;2.00;99.90;;;1.08;100.00;95017.28;4998151;28;20033;-34
2024/01/17 09:03:20;;;;;;;14.65;8.43;;;2.00;99.90;;;1.05;100.00;95007.00;4998846;28;20375;-34
2024/01/17 09:05:46;;;;;;;16.88;8.43;;;2.10;99.90;;;1.18;100.00;95012.56;4997738;28;20022;-34
2024/01/17 09:08:13;;;;;;;16.25;8.43;;;2.10;99.90;;;1.15;100.00;94992.78;4996892;28;20033;-34
2024/01/17 09:10:39;;;;;;;15.68;8.23;;;2.20;99.90;;;1.30;100.00;95012.09;4996689;28;20037;-34
2024/01/17 09:13:06;;;;;;;16.17;7.85;;;2.20;99.90;;;1.31;100.00;95001.66;4992404;28;20022;-34
2024/01/17 09:15:32;;;;;;;13.25;8.05;;;2.30;99.90;;;1.37;100.00;94999.75;4995998;28;21025;-35
2024/01/17 09:17:58;;;;;;;13.40;7.47;;;2.30;99.90;;;1.39;100.00;94990.13;4999542;28;20057;-35
2024/01/17 09:20:24;;;;;;;17.63;8.43;;;2.40;99.90;;;1.40;100.00;94976.22;4996725;28;20034;-34
2024/01/17 09:22:50;;;;;;;11.45;7.55;;;2.40;99.90;;;1.48;100.00;94979.38;4995508;28;20029;-34
2024/01/17 09:25:17;;;;;;;12.30;7.35;;;2.50;99.90;;;1.56;100.00;94987.69;4998015;28;20144;-34
2024/01/17 09:27:43;;;;;;;14.68;7.40;;;2.50;99.90;;;1.61;100.00;94980.56;4997935;28;20504;-34
2024/01/17 09:30:09;;;;;;;11.23;6.55;;;2.60;99.90;;;1.55;100.00;94973.03;5001289;28;20401;-34
2024/01/17 09:32:34;;;;;;;13.48;7.75;;;2.60;99.90;;;1.65;100.00;94974.34;4990752;28;20099;-34
2024/01/17 09:35:00;;;;;;;10.95;6.65;;;2.60;99.90;;;1.72;100.00;94972.31;4996436;28;20246;-34
2024/01/17 09:37:26;;;;;;;11.73;6.03;;;2.60;99.90;;;1.77;100.00;94970.38;4999445;28;20037;-34
2024/01/17 09:39:51;;;;;;;10.02;6.10;;;2.70;99.90;;;1.84;100.00;94965.78;4996707;28;20116;-34
2024/01/17 09:42:20;;;;;;;15.15;6.70;;;2.70;99.90;;;1.90;100.00;94957.72;4998419;28;20479;-34
2024/01/17 09:44:47;;;;;;;11.38;5.93;;;2.80;99.90;;;1.97;100.00;94950.53;4996882;28;20069;-35
2024/01/17 09:47:19;;;;;;;12.73;5.72;;;2.90;99.90;;;2.01;100.00;94946.88;4996256;28;20042;-34
2024/01/17 09:49:45;;;;;;;13.23;5.70;;;2.90;99.90;;;2.04;100.00;94945.00;4995196;28;20029;-35
2024/01/17 09:52:13;;;;;;;10.25;5.13;;;3.00;99.90;;;2.10;100.00;94941.31;4998594;28;20296;-34
2024/01/17 09:54:43;;;;;;;10.23;5.05;;;3.00;99.90;;;2.14;100.00;94931.63;4992516;28;20022;-35
2024/01/17 09:57:16;;;;;;;9.77;5.25;;;3.00;99.90;;;2.07;100.00;94908.47;5013486;28;20617;-34
2024/01/17 09:59:49;;;;;;;9.05;5.25;;;3.10;99.90;;;2.05;100.00;94906.88;4998830;28;20029;-34
2024/01/17 10:02:16;;;;;;;10.38;5.00;;;3.10;99.90;;;2.17;100.00;94918.47;4997524;28;20056;-35
2024/01/17 10:04:45;;;;;;;10.02;5.35;;;3.10;99.90;;;2.20;100.00;94900.97;4997699;28;20430;-34
2024/01/17 10:07:12;;;;;;;10.07;5.10;;;3.10;99.90;;;2.22;100.00;94895.72;4993325;28;20029;-35